createdAt,value
2017-06-24T00:00:21.109Z,1026.03
2017-06-24T00:01:21.754Z,1026.07
2017-06-24T00:02:22.399Z,1026.10
2017-06-24T00:03:23.040Z,1026.03
2017-06-24T00:04:23.681Z,1026.05
2017-06-24T00:05:24.326Z,1025.97
2017-06-24T00:06:24.968Z,1026.00
2017-06-24T00:07:25.612Z,1025.99
2017-06-24T00:08:26.506Z,1025.96
2017-06-24T00:09:27.150Z,1026.01
2017-06-24T00:10:27.794Z,1025.87
2017-06-24T00:11:28.434Z,1025.89
2017-06-24T00:12:29.076Z,1025.88
2017-06-24T00:13:29.725Z,1025.87
2017-06-24T00:14:30.369Z,1025.87
2017-06-24T00:15:31.014Z,1025.85
2017-06-24T00:16:31.660Z,1025.85
2017-06-24T00:17:32.503Z,1025.75
2017-06-24T00:18:33.146Z,1025.80
2017-06-24T00:19:33.789Z,1025.85
2017-06-24T00:20:34.434Z,1025.79
2017-06-24T00:21:35.075Z,1025.78
2017-06-24T00:22:35.720Z,1025.79
2017-06-24T00:23:36.364Z,1025.81
2017-06-24T00:24:37.005Z,1025.84
2017-06-24T00:25:37.799Z,1025.83
2017-06-24T00:26:38.443Z,1025.86
2017-06-24T00:27:39.085Z,1025.81
2017-06-24T00:28:39.727Z,1025.88
2017-06-24T00:29:40.369Z,1025.91
2017-06-24T00:30:41.014Z,1025.98
2017-06-24T00:31:41.656Z,1025.97
2017-06-24T00:32:42.301Z,1025.97
2017-06-24T00:33:43.145Z,1025.97
2017-06-24T00:34:43.788Z,1026.00
2017-06-24T00:35:44.430Z,1026.11
2017-06-24T00:36:45.072Z,1026.04
2017-06-24T00:37:45.714Z,1026.08
2017-06-24T00:38:46.358Z,1026.00
2017-06-24T00:39:47.001Z,1025.92
2017-06-24T00:40:47.643Z,1025.83
2017-06-24T00:41:48.435Z,1025.80
2017-06-24T00:42:49.079Z,1025.81
2017-06-24T00:43:49.725Z,1025.67
2017-06-24T00:44:50.366Z,1025.60
2017-06-24T00:45:51.007Z,1025.62
2017-06-24T00:46:51.651Z,1025.60
2017-06-24T00:47:52.294Z,1025.74
2017-06-24T00:48:52.937Z,1025.80
2017-06-24T00:49:53.780Z,1025.83
2017-06-24T00:50:54.422Z,1025.83
2017-06-24T00:51:55.065Z,1025.83
2017-06-24T00:52:55.705Z,1025.83
2017-06-24T00:53:56.352Z,1025.75
2017-06-24T00:54:56.993Z,1025.73
2017-06-24T00:55:57.637Z,1025.74
2017-06-24T00:56:58.278Z,1025.81
2017-06-24T00:57:58.920Z,1025.78
2017-06-24T00:58:59.762Z,1025.84
2017-06-24T01:00:00.408Z,1025.80
2017-06-24T01:01:01.053Z,1025.88
2017-06-24T01:02:01.696Z,1025.84
2017-06-24T01:03:02.338Z,1025.82
2017-06-24T01:04:02.980Z,1025.85
2017-06-24T01:05:03.622Z,1025.89
2017-06-24T01:06:04.264Z,1025.78
2017-06-24T01:07:05.057Z,1025.75
2017-06-24T01:08:05.702Z,1025.67
2017-06-24T01:09:06.342Z,1025.71
2017-06-24T01:10:06.986Z,1025.69
2017-06-24T01:11:07.630Z,1025.71
2017-06-24T01:12:08.275Z,1025.67
2017-06-24T01:13:08.920Z,1025.74
2017-06-24T01:14:09.561Z,1025.67
2017-06-24T01:15:10.505Z,1025.61
2017-06-24T01:16:11.149Z,1025.61
2017-06-24T01:17:11.792Z,1025.61
2017-06-24T01:18:12.432Z,1025.67
2017-06-24T01:19:13.081Z,1025.60
2017-06-24T01:20:13.722Z,1025.65
2017-06-24T01:21:14.367Z,1025.63
2017-06-24T01:22:15.011Z,1025.76
2017-06-24T01:23:15.851Z,1025.64
2017-06-24T01:24:16.493Z,1025.66
2017-06-24T01:25:17.137Z,1025.64
2017-06-24T01:26:17.783Z,1025.60
2017-06-24T01:27:18.426Z,1025.66
2017-06-24T01:28:19.069Z,1025.57
2017-06-24T01:29:19.709Z,1025.57
2017-06-24T01:30:20.353Z,1025.51
2017-06-24T01:31:20.994Z,1025.61
2017-06-24T01:32:21.888Z,1025.59
2017-06-24T01:33:22.532Z,1025.60
2017-06-24T01:34:23.175Z,1025.55
2017-06-24T01:35:23.821Z,1025.60
2017-06-24T01:36:24.462Z,1025.60
2017-06-24T01:37:25.104Z,1025.54
2017-06-24T01:38:25.744Z,1025.49
2017-06-24T01:39:26.387Z,1025.53
2017-06-24T01:40:27.235Z,1025.39
2017-06-24T01:41:27.877Z,1025.37
2017-06-24T01:42:28.521Z,1025.34
2017-06-24T01:43:29.161Z,1025.28
2017-06-24T01:44:29.805Z,1025.38
2017-06-24T01:45:30.448Z,1025.30
2017-06-24T01:46:31.095Z,1025.36
2017-06-24T01:47:31.736Z,1025.27
2017-06-24T01:48:32.577Z,1025.37
2017-06-24T01:49:33.219Z,1025.37
2017-06-24T01:50:33.862Z,1025.38
2017-06-24T01:51:34.506Z,1025.31
2017-06-24T01:52:35.149Z,1025.26
2017-06-24T01:53:35.792Z,1025.26
2017-06-24T01:54:36.434Z,1025.18
2017-06-24T01:55:37.075Z,1025.24
2017-06-24T01:56:37.921Z,1025.20
2017-06-24T01:57:38.560Z,1025.20
2017-06-24T01:58:39.203Z,1025.24
2017-06-24T01:59:39.845Z,1025.27
2017-06-24T02:00:40.486Z,1025.21
2017-06-24T02:01:41.131Z,1025.15
2017-06-24T02:02:41.774Z,1025.10
2017-06-24T02:03:42.417Z,1025.13
2017-06-24T02:04:43.259Z,1025.14
2017-06-24T02:05:43.902Z,1025.19
2017-06-24T02:06:44.545Z,1025.12
2017-06-24T02:07:45.187Z,1025.25
2017-06-24T02:08:45.830Z,1025.14
2017-06-24T02:09:46.472Z,1025.09
2017-06-24T02:10:47.113Z,1025.12
2017-06-24T02:11:47.758Z,1025.05
2017-06-24T02:12:48.399Z,1025.04
2017-06-24T02:13:49.342Z,1025.01
2017-06-24T02:14:49.987Z,1024.98
2017-06-24T02:15:50.631Z,1024.92
2017-06-24T02:16:51.274Z,1024.91
2017-06-24T02:17:51.915Z,1024.94
2017-06-24T02:18:52.564Z,1024.85
2017-06-24T02:19:53.201Z,1024.87
2017-06-24T02:20:53.845Z,1024.91
2017-06-24T02:21:54.689Z,1025.02
2017-06-24T02:22:55.331Z,1024.97
2017-06-24T02:23:55.973Z,1025.05
2017-06-24T02:24:56.615Z,1024.99
2017-06-24T02:25:57.259Z,1025.08
2017-06-24T02:26:57.901Z,1024.99
2017-06-24T02:27:58.546Z,1024.97
2017-06-24T02:28:59.189Z,1025.02
2017-06-24T02:30:00.032Z,1024.98
2017-06-24T02:31:00.675Z,1025.00
2017-06-24T02:32:01.319Z,1025.03
2017-06-24T02:33:01.960Z,1025.12
2017-06-24T02:34:02.605Z,1025.00
2017-06-24T02:35:03.250Z,1025.05
2017-06-24T02:36:03.895Z,1025.03
2017-06-24T02:37:04.537Z,1024.94
2017-06-24T02:38:05.679Z,1024.93
2017-06-24T02:39:06.320Z,1024.85
2017-06-24T02:40:07.023Z,1024.81
2017-06-24T02:41:07.665Z,1024.86
2017-06-24T02:42:08.309Z,1024.87
2017-06-24T02:43:08.951Z,1024.91
2017-06-24T02:44:09.595Z,1024.84
2017-06-24T02:45:10.240Z,1024.83
2017-06-24T02:46:10.879Z,1024.88
2017-06-24T02:47:11.723Z,1024.83
2017-06-24T02:48:12.367Z,1024.97
2017-06-24T02:49:13.010Z,1024.95
2017-06-24T02:50:13.657Z,1024.95
2017-06-24T02:51:14.294Z,1025.02
2017-06-24T02:52:14.935Z,1024.93
2017-06-24T02:53:15.580Z,1024.93
2017-06-24T02:54:16.219Z,1024.95
2017-06-24T02:55:17.066Z,1024.90
2017-06-24T02:56:17.706Z,1024.85
2017-06-24T02:57:18.351Z,1024.93
2017-06-24T02:58:18.992Z,1024.89
2017-06-24T02:59:19.633Z,1024.85
2017-06-24T03:00:20.279Z,1024.89
2017-06-24T03:01:20.924Z,1024.82
2017-06-24T03:02:21.566Z,1024.89
2017-06-24T03:03:22.408Z,1024.83
2017-06-24T03:04:23.049Z,1024.77
2017-06-24T03:05:23.692Z,1024.74
2017-06-24T03:06:24.338Z,1024.76
2017-06-24T03:07:24.980Z,1024.68
2017-06-24T03:08:25.622Z,1024.65
2017-06-24T03:09:26.264Z,1024.61
2017-06-24T03:10:26.906Z,1024.58
2017-06-24T03:11:27.700Z,1024.56
2017-06-24T03:12:28.342Z,1024.48
2017-06-24T03:13:28.982Z,1024.47
2017-06-24T03:14:29.627Z,1024.39
2017-06-24T03:15:30.268Z,1024.34
2017-06-24T03:16:30.910Z,1024.39
2017-06-24T03:17:31.554Z,1024.39
2017-06-24T03:18:32.196Z,1024.37
2017-06-24T03:19:33.039Z,1024.39
2017-06-24T03:20:33.682Z,1024.32
2017-06-24T03:21:34.332Z,1024.39
2017-06-24T03:22:34.972Z,1024.44
2017-06-24T03:23:35.616Z,1024.43
2017-06-24T03:24:36.259Z,1024.58
2017-06-24T03:25:36.901Z,1024.60
2017-06-24T03:26:37.544Z,1024.68
2017-06-24T03:27:38.185Z,1024.62
2017-06-24T03:28:38.978Z,1024.59
2017-06-24T03:29:39.620Z,1024.67
2017-06-24T03:30:40.262Z,1024.70
2017-06-24T03:31:40.906Z,1024.70
2017-06-24T03:32:41.548Z,1024.67
2017-06-24T03:33:42.189Z,1024.68
2017-06-24T03:34:42.835Z,1024.74
2017-06-24T03:35:43.477Z,1024.74
2017-06-24T03:36:44.321Z,1024.74
2017-06-24T03:37:44.964Z,1024.78
2017-06-24T03:38:45.628Z,1024.80
2017-06-24T03:39:46.251Z,1024.85
2017-06-24T03:40:46.894Z,1024.84
2017-06-24T03:41:47.535Z,1024.80
2017-06-24T03:42:48.176Z,1024.73
2017-06-24T03:43:48.821Z,1024.73
2017-06-24T03:44:49.765Z,1024.64
2017-06-24T03:45:50.408Z,1024.57
2017-06-24T03:46:51.049Z,1024.47
2017-06-24T03:47:51.694Z,1024.42
2017-06-24T03:48:52.339Z,1024.45
2017-06-24T03:49:52.980Z,1024.41
2017-06-24T03:50:53.623Z,1024.36
2017-06-24T03:51:54.268Z,1024.35
2017-06-24T03:52:55.109Z,1024.35
2017-06-24T03:53:55.751Z,1024.32
2017-06-24T03:54:56.396Z,1024.41
2017-06-24T03:55:57.039Z,1024.28
2017-06-24T03:56:57.680Z,1024.33
2017-06-24T03:57:58.325Z,1024.41
2017-06-24T03:58:58.966Z,1024.40
2017-06-24T03:59:59.606Z,1024.55
2017-06-24T04:01:00.253Z,1024.60
2017-06-24T04:02:01.045Z,1024.54
2017-06-24T04:03:01.686Z,1024.63
2017-06-24T04:04:02.330Z,1024.63
2017-06-24T04:05:02.927Z,1024.65
2017-06-24T04:06:03.566Z,1024.55
2017-06-24T04:07:04.209Z,1024.57
2017-06-24T04:08:04.849Z,1024.51
2017-06-24T04:09:05.493Z,1024.51
2017-06-24T04:10:06.335Z,1024.48
2017-06-24T04:11:06.977Z,1024.41
2017-06-24T04:12:07.618Z,1024.41
2017-06-24T04:13:08.261Z,1024.44
2017-06-24T04:14:08.904Z,1024.49
2017-06-24T04:15:09.547Z,1024.58
2017-06-24T04:16:10.192Z,1024.48
2017-06-24T04:17:10.834Z,1024.56
2017-06-24T04:18:11.676Z,1024.47
2017-06-24T04:19:12.323Z,1024.53
2017-06-24T04:20:12.964Z,1024.42
2017-06-24T04:21:13.608Z,1024.38
2017-06-24T04:22:14.251Z,1024.30
2017-06-24T04:23:14.897Z,1024.23
2017-06-24T04:24:15.537Z,1024.26
2017-06-24T04:25:16.178Z,1024.30
2017-06-24T04:26:17.021Z,1024.23
2017-06-24T04:27:17.667Z,1024.19
2017-06-24T04:28:18.308Z,1024.19
2017-06-24T04:29:18.948Z,1024.21
2017-06-24T04:30:19.590Z,1024.25
2017-06-24T04:31:20.233Z,1024.20
2017-06-24T04:32:20.876Z,1024.26
2017-06-24T04:33:21.517Z,1024.32
2017-06-24T04:34:22.460Z,1024.28
2017-06-24T04:35:23.103Z,1024.35
2017-06-24T04:36:23.745Z,1024.43
2017-06-24T04:37:24.386Z,1024.41
2017-06-24T04:38:25.028Z,1024.40
2017-06-24T04:39:25.672Z,1024.44
2017-06-24T04:40:26.314Z,1024.42
2017-06-24T04:41:26.956Z,1024.30
2017-06-24T04:42:27.601Z,1024.32
2017-06-24T04:43:28.501Z,1024.18
2017-06-24T04:44:29.136Z,1024.17
2017-06-24T04:45:29.778Z,1024.20
2017-06-24T04:46:30.419Z,1024.18
2017-06-24T04:47:31.062Z,1024.21
2017-06-24T04:48:31.705Z,1024.24
2017-06-24T04:49:32.350Z,1024.24
2017-06-24T04:50:32.992Z,1024.41
2017-06-24T04:51:33.784Z,1024.36
2017-06-24T04:52:34.427Z,1024.51
2017-06-24T04:53:35.073Z,1024.52
2017-06-24T04:54:35.715Z,1024.50
2017-06-24T04:55:36.355Z,1024.48
2017-06-24T04:56:36.999Z,1024.52
2017-06-24T04:57:37.640Z,1024.45
2017-06-24T04:58:38.282Z,1024.48
2017-06-24T04:59:39.127Z,1024.48
2017-06-24T05:00:39.766Z,1024.57
2017-06-24T05:01:40.410Z,1024.61
2017-06-24T05:02:41.051Z,1024.66
2017-06-24T05:03:41.695Z,1024.63
2017-06-24T05:04:42.337Z,1024.60
2017-06-24T05:05:42.982Z,1024.71
2017-06-24T05:06:43.623Z,1024.60
2017-06-24T05:07:44.471Z,1024.58
2017-06-24T05:08:45.165Z,1024.58
2017-06-24T05:09:45.808Z,1024.51
2017-06-24T05:10:46.449Z,1024.46
2017-06-24T05:11:47.094Z,1024.49
2017-06-24T05:12:47.737Z,1024.46
2017-06-24T05:13:48.383Z,1024.51
2017-06-24T05:14:49.023Z,1024.54
2017-06-24T05:15:49.669Z,1024.54
2017-06-24T05:16:50.509Z,1024.48
2017-06-24T05:17:51.152Z,1024.44
2017-06-24T05:18:51.797Z,1024.36
2017-06-24T05:19:52.441Z,1024.41
2017-06-24T05:20:53.081Z,1024.36
2017-06-24T05:21:53.723Z,1024.41
2017-06-24T05:22:54.365Z,1024.34
2017-06-24T05:23:55.006Z,1024.34
2017-06-24T05:24:55.849Z,1024.31
2017-06-24T05:25:56.493Z,1024.43
2017-06-24T05:26:57.133Z,1024.53
2017-06-24T05:27:57.777Z,1024.45
2017-06-24T05:28:58.417Z,1024.54
2017-06-24T05:29:59.063Z,1024.44
2017-06-24T05:30:59.704Z,1024.54
2017-06-24T05:32:00.348Z,1024.57
2017-06-24T05:33:01.242Z,1024.56
2017-06-24T05:34:01.886Z,1024.57
2017-06-24T05:35:02.528Z,1024.59
2017-06-24T05:36:03.169Z,1024.54
2017-06-24T05:37:03.815Z,1024.50
2017-06-24T05:38:04.457Z,1024.51
2017-06-24T05:39:05.101Z,1024.48
2017-06-24T05:40:05.741Z,1024.48
2017-06-24T05:41:06.534Z,1024.50
2017-06-24T05:42:07.177Z,1024.44
2017-06-24T05:43:07.820Z,1024.41
2017-06-24T05:44:08.463Z,1024.50
2017-06-24T05:45:09.104Z,1024.52
2017-06-24T05:46:09.748Z,1024.47
2017-06-24T05:47:10.388Z,1024.57
2017-06-24T05:48:11.033Z,1024.63
2017-06-24T05:49:11.925Z,1024.63
2017-06-24T05:50:12.567Z,1024.66
2017-06-24T05:51:13.211Z,1024.63
2017-06-24T05:52:13.851Z,1024.63
2017-06-24T05:53:14.492Z,1024.68
2017-06-24T05:54:15.136Z,1024.68
2017-06-24T05:55:15.782Z,1024.68
2017-06-24T05:56:16.424Z,1024.63
2017-06-24T05:57:17.069Z,1024.82
2017-06-24T05:58:17.961Z,1024.68
2017-06-24T05:59:18.605Z,1024.75
2017-06-24T06:00:19.246Z,1024.76
2017-06-24T06:01:19.890Z,1024.74
2017-06-24T06:02:20.534Z,1024.77
2017-06-24T06:03:21.179Z,1024.81
2017-06-24T06:04:21.822Z,1024.72
2017-06-24T06:05:22.465Z,1024.74
2017-06-24T06:06:23.307Z,1024.70
2017-06-24T06:07:23.947Z,1024.77
2017-06-24T06:08:24.590Z,1024.72
2017-06-24T06:09:25.234Z,1024.72
2017-06-24T06:10:25.875Z,1024.80
2017-06-24T06:11:26.467Z,1024.77
2017-06-24T06:12:27.109Z,1024.72
2017-06-24T06:13:27.751Z,1024.77
2017-06-24T06:14:28.546Z,1024.72
2017-06-24T06:15:29.195Z,1024.66
2017-06-24T06:16:29.840Z,1024.71
2017-06-24T06:17:30.481Z,1024.63
2017-06-24T06:18:31.123Z,1024.65
2017-06-24T06:19:31.766Z,1024.65
2017-06-24T06:20:32.411Z,1024.65
2017-06-24T06:21:33.056Z,1024.79
2017-06-24T06:22:33.896Z,1024.81
2017-06-24T06:23:34.538Z,1024.86
2017-06-24T06:24:35.180Z,1024.81
2017-06-24T06:25:35.824Z,1024.77
2017-06-24T06:26:36.466Z,1024.81
2017-06-24T06:27:37.108Z,1024.77
2017-06-24T06:28:37.751Z,1024.65
2017-06-24T06:29:38.393Z,1024.62
2017-06-24T06:30:39.034Z,1024.65
2017-06-24T06:31:39.777Z,1024.60
2017-06-24T06:32:40.422Z,1024.62
2017-06-24T06:33:41.063Z,1024.60
2017-06-24T06:34:41.706Z,1024.53
2017-06-24T06:35:42.351Z,1024.51
2017-06-24T06:36:42.995Z,1024.45
2017-06-24T06:37:43.635Z,1024.44
2017-06-24T06:38:44.278Z,1024.39
2017-06-24T06:39:45.271Z,1024.40
2017-06-24T06:40:45.914Z,1024.39
2017-06-24T06:41:46.555Z,1024.37
2017-06-24T06:42:47.199Z,1024.35
2017-06-24T06:43:47.842Z,1024.40
2017-06-24T06:44:48.487Z,1024.47
2017-06-24T06:45:49.128Z,1024.42
2017-06-24T06:46:49.770Z,1024.47
2017-06-24T06:47:50.562Z,1024.40
2017-06-24T06:48:51.209Z,1024.41
2017-06-24T06:49:51.850Z,1024.35
2017-06-24T06:50:52.492Z,1024.34
2017-06-24T06:51:53.133Z,1024.33
2017-06-24T06:52:53.826Z,1024.36
2017-06-24T06:53:54.467Z,1024.45
2017-06-24T06:54:55.111Z,1024.49
2017-06-24T06:55:56.011Z,1024.38
2017-06-24T06:56:56.653Z,1024.51
2017-06-24T06:57:57.298Z,1024.54
2017-06-24T06:58:57.940Z,1024.60
2017-06-24T06:59:58.582Z,1024.57
2017-06-24T07:00:59.225Z,1024.57
2017-06-24T07:01:59.865Z,1024.61
2017-06-24T07:03:00.506Z,1024.70
2017-06-24T07:04:01.351Z,1024.59
2017-06-24T07:05:01.994Z,1024.57
2017-06-24T07:06:02.637Z,1024.57
2017-06-24T07:07:03.278Z,1024.49
2017-06-24T07:08:03.970Z,1024.46
2017-06-24T07:09:04.612Z,1024.35
2017-06-24T07:10:05.255Z,1024.29
2017-06-24T07:11:05.901Z,1024.27
2017-06-24T07:12:06.545Z,1024.31
2017-06-24T07:13:07.391Z,1024.33
2017-06-24T07:14:08.091Z,1024.33
2017-06-24T07:15:08.732Z,1024.38
2017-06-24T07:16:09.374Z,1024.33
2017-06-24T07:17:10.019Z,1024.41
2017-06-24T07:18:10.658Z,1024.33
2017-06-24T07:19:11.301Z,1024.33
2017-06-24T07:20:11.946Z,1024.37
2017-06-24T07:21:12.741Z,1024.34
2017-06-24T07:22:13.382Z,1024.42
2017-06-24T07:23:14.023Z,1024.39
2017-06-24T07:24:14.666Z,1024.40
2017-06-24T07:25:15.313Z,1024.37
2017-06-24T07:26:15.959Z,1024.56
2017-06-24T07:27:16.600Z,1024.54
2017-06-24T07:28:17.244Z,1024.57
2017-06-24T07:29:18.084Z,1024.54
2017-06-24T07:30:18.732Z,1024.41
2017-06-24T07:31:19.378Z,1024.38
2017-06-24T07:32:20.023Z,1024.29
2017-06-24T07:33:20.666Z,1024.29
2017-06-24T07:34:21.314Z,1024.20
2017-06-24T07:35:21.954Z,1024.25
2017-06-24T07:36:22.596Z,1024.25
2017-06-24T07:37:23.439Z,1024.33
2017-06-24T07:38:24.086Z,1024.31
2017-06-24T07:39:24.733Z,1024.36
2017-06-24T07:40:25.375Z,1024.39
2017-06-24T07:41:26.018Z,1024.29
2017-06-24T07:42:26.661Z,1024.32
2017-06-24T07:43:27.303Z,1024.38
2017-06-24T07:44:27.946Z,1024.33
2017-06-24T07:45:28.591Z,1024.32
2017-06-24T07:46:29.533Z,1024.31
2017-06-24T07:47:30.177Z,1024.34
2017-06-24T07:48:30.824Z,1024.33
2017-06-24T07:49:31.475Z,1024.43
2017-06-24T07:50:32.114Z,1024.44
2017-06-24T07:51:32.756Z,1024.53
2017-06-24T07:52:33.404Z,1024.55
2017-06-24T07:53:34.041Z,1024.49
2017-06-24T07:54:34.834Z,1024.39
2017-06-24T07:55:35.478Z,1024.31
2017-06-24T07:56:36.120Z,1024.25
2017-06-24T07:57:36.762Z,1024.24
2017-06-24T07:58:37.408Z,1024.30
2017-06-24T07:59:38.052Z,1024.32
2017-06-24T08:00:38.695Z,1024.44
2017-06-24T08:01:39.341Z,1024.54
2017-06-24T08:02:40.187Z,1024.50
2017-06-24T08:03:40.831Z,1024.47
2017-06-24T08:04:41.475Z,1024.40
2017-06-24T08:05:42.117Z,1024.40
2017-06-24T08:06:42.762Z,1024.39
2017-06-24T08:07:43.406Z,1024.39
2017-06-24T08:08:44.051Z,1024.36
2017-06-24T08:09:44.694Z,1024.39
2017-06-24T08:10:45.541Z,1024.37
2017-06-24T08:11:46.185Z,1024.32
2017-06-24T08:12:46.828Z,1024.32
2017-06-24T08:13:47.478Z,1024.39
2017-06-24T08:14:48.114Z,1024.43
2017-06-24T08:15:48.758Z,1024.35
2017-06-24T08:16:49.404Z,1024.46
2017-06-24T08:17:50.045Z,1024.47
2017-06-24T08:18:50.839Z,1024.42
2017-06-24T08:19:51.485Z,1024.42
2017-06-24T08:20:52.134Z,1024.40
2017-06-24T08:21:52.776Z,1024.26
2017-06-24T08:22:53.418Z,1024.19
2017-06-24T08:23:54.062Z,1024.10
2017-06-24T08:24:54.704Z,1024.11
2017-06-24T08:25:55.347Z,1024.10
2017-06-24T08:26:55.992Z,1024.14
2017-06-24T08:27:56.834Z,1024.23
2017-06-24T08:28:57.476Z,1024.35
2017-06-24T08:29:58.119Z,1024.45
2017-06-24T08:30:58.762Z,1024.46
2017-06-24T08:31:59.405Z,1024.57
2017-06-24T08:33:00.047Z,1024.62
2017-06-24T08:34:00.691Z,1024.62
2017-06-24T08:35:01.337Z,1024.67
2017-06-24T08:36:02.181Z,1024.50
2017-06-24T08:37:02.824Z,1024.45
2017-06-24T08:38:03.469Z,1024.42
2017-06-24T08:39:04.110Z,1024.42
2017-06-24T08:40:04.753Z,1024.35
2017-06-24T08:41:05.399Z,1024.39
2017-06-24T08:42:06.043Z,1024.42
2017-06-24T08:43:06.687Z,1024.42
2017-06-24T08:44:07.431Z,1024.33
2017-06-24T08:45:08.073Z,1024.35
2017-06-24T08:46:08.718Z,1024.33
2017-06-24T08:47:09.363Z,1024.41
2017-06-24T08:48:10.003Z,1024.54
2017-06-24T08:49:10.647Z,1024.58
2017-06-24T08:50:11.290Z,1024.64
2017-06-24T08:51:11.932Z,1024.62
2017-06-24T08:52:12.726Z,1024.69
2017-06-24T08:53:13.370Z,1024.64
2017-06-24T08:54:14.013Z,1024.58
2017-06-24T08:55:14.659Z,1024.59
2017-06-24T08:56:15.357Z,1024.55
2017-06-24T08:57:16.002Z,1024.51
2017-06-24T08:58:16.644Z,1024.43
2017-06-24T08:59:17.288Z,1024.39
2017-06-24T09:00:17.934Z,1024.38
2017-06-24T09:01:19.028Z,1024.40
2017-06-24T09:02:19.673Z,1024.44
2017-06-24T09:03:20.317Z,1024.36
2017-06-24T09:04:20.958Z,1024.36
2017-06-24T09:05:21.605Z,1024.31
2017-06-24T09:06:22.251Z,1024.31
2017-06-24T09:07:22.895Z,1024.26
2017-06-24T09:08:23.539Z,1024.24
2017-06-24T09:09:24.383Z,1024.15
2017-06-24T09:10:25.028Z,1024.22
2017-06-24T09:11:25.668Z,1024.18
2017-06-24T09:12:26.311Z,1024.22
2017-06-24T09:13:26.958Z,1024.28
2017-06-24T09:14:27.603Z,1024.30
2017-06-24T09:15:28.249Z,1024.31
2017-06-24T09:16:28.892Z,1024.31
2017-06-24T09:17:29.735Z,1024.31
2017-06-24T09:18:30.380Z,1024.31
2017-06-24T09:19:31.022Z,1024.31
2017-06-24T09:20:31.666Z,1024.41
2017-06-24T09:21:32.311Z,1024.43
2017-06-24T09:22:32.955Z,1024.53
2017-06-24T09:23:33.600Z,1024.55
2017-06-24T09:24:34.241Z,1024.59
2017-06-24T09:25:35.087Z,1024.61
2017-06-24T09:26:35.733Z,1024.50
2017-06-24T09:27:36.377Z,1024.43
2017-06-24T09:28:37.021Z,1024.39
2017-06-24T09:29:37.665Z,1024.33
2017-06-24T09:30:38.307Z,1024.36
2017-06-24T09:31:38.949Z,1024.38
2017-06-24T09:32:39.594Z,1024.37
2017-06-24T09:33:40.536Z,1024.40
2017-06-24T09:34:41.188Z,1024.44
2017-06-24T09:35:41.831Z,1024.37
2017-06-24T09:36:42.473Z,1024.44
2017-06-24T09:37:43.118Z,1024.42
2017-06-24T09:38:43.762Z,1024.40
2017-06-24T09:39:44.409Z,1024.37
2017-06-24T09:40:45.049Z,1024.40
2017-06-24T09:41:45.692Z,1024.43
2017-06-24T09:42:46.536Z,1024.34
2017-06-24T09:43:47.180Z,1024.36
2017-06-24T09:44:47.827Z,1024.36
2017-06-24T09:45:48.473Z,1024.34
2017-06-24T09:46:49.114Z,1024.29
2017-06-24T09:47:49.757Z,1024.34
2017-06-24T09:48:50.398Z,1024.36
2017-06-24T09:49:51.042Z,1024.30
2017-06-24T09:50:51.886Z,1024.26
2017-06-24T09:51:58.184Z,1024.25
2017-06-24T09:52:58.835Z,1024.21
2017-06-24T09:53:59.471Z,1024.23
2017-06-24T09:55:00.116Z,1024.32
2017-06-24T09:56:00.762Z,1024.35
2017-06-24T09:57:01.408Z,1024.36
2017-06-24T09:58:02.051Z,1024.38
2017-06-24T09:59:02.897Z,1024.40
2017-06-24T10:00:03.542Z,1024.43
2017-06-24T10:01:04.187Z,1024.45
2017-06-24T10:02:04.827Z,1024.45
2017-06-24T10:03:05.473Z,1024.48
2017-06-24T10:04:06.117Z,1024.41
2017-06-24T10:05:06.762Z,1024.45
2017-06-24T10:06:07.409Z,1024.42
2017-06-24T10:07:08.252Z,1024.49
2017-06-24T10:08:08.898Z,1024.51
2017-06-24T10:09:09.542Z,1024.48
2017-06-24T10:10:10.187Z,1024.49
2017-06-24T10:11:10.830Z,1024.54
2017-06-24T10:12:11.476Z,1024.55
2017-06-24T10:13:12.119Z,1024.47
2017-06-24T10:14:12.761Z,1024.45
2017-06-24T10:15:13.604Z,1024.51
2017-06-24T10:16:14.247Z,1024.43
2017-06-24T10:17:14.892Z,1024.46
2017-06-24T10:18:15.536Z,1024.47
2017-06-24T10:19:16.182Z,1024.39
2017-06-24T10:20:16.826Z,1024.44
2017-06-24T10:21:17.469Z,1024.30
2017-06-24T10:22:18.111Z,1024.37
2017-06-24T10:23:18.754Z,1024.35
2017-06-24T10:24:19.599Z,1024.37
2017-06-24T10:25:20.242Z,1024.29
2017-06-24T10:26:20.884Z,1024.25
2017-06-24T10:27:21.529Z,1024.18
2017-06-24T10:28:22.170Z,1024.22
2017-06-24T10:29:22.817Z,1024.24
2017-06-24T10:30:23.458Z,1024.33
2017-06-24T10:31:24.105Z,1024.36
2017-06-24T10:32:24.898Z,1024.45
2017-06-24T10:33:25.540Z,1024.34
2017-06-24T10:34:26.183Z,1024.48
2017-06-24T10:35:26.828Z,1024.60
2017-06-24T10:36:27.470Z,1024.57
2017-06-24T10:37:28.118Z,1024.60
2017-06-24T10:38:28.763Z,1024.69
2017-06-24T10:39:29.405Z,1024.62
2017-06-24T10:40:30.398Z,1024.65
2017-06-24T10:41:31.045Z,1024.66
2017-06-24T10:42:31.688Z,1024.59
2017-06-24T10:43:32.329Z,1024.59
2017-06-24T10:44:32.971Z,1024.63
2017-06-24T10:45:33.617Z,1024.59
2017-06-24T10:46:34.260Z,1024.62
2017-06-24T10:47:34.904Z,1024.58
2017-06-24T10:48:35.749Z,1024.62
2017-06-24T10:49:36.394Z,1024.67
2017-06-24T10:50:37.038Z,1024.53
2017-06-24T10:51:37.684Z,1024.52
2017-06-24T10:52:38.384Z,1024.45
2017-06-24T10:53:39.029Z,1024.44
2017-06-24T10:54:39.675Z,1024.39
2017-06-24T10:55:40.319Z,1024.39
2017-06-24T10:56:40.964Z,1024.44
2017-06-24T10:57:41.808Z,1024.38
2017-06-24T10:58:42.452Z,1024.36
2017-06-24T10:59:43.097Z,1024.43
2017-06-24T11:00:43.738Z,1024.37
2017-06-24T11:01:44.380Z,1024.43
2017-06-24T11:02:45.023Z,1024.43
2017-06-24T11:03:45.667Z,1024.43
2017-06-24T11:04:46.313Z,1024.40
2017-06-24T11:05:47.167Z,1024.43
2017-06-24T11:06:47.810Z,1024.42
2017-06-24T11:07:48.455Z,1024.38
2017-06-24T11:08:49.098Z,1024.36
2017-06-24T11:09:49.739Z,1024.50
2017-06-24T11:10:50.385Z,1024.38
2017-06-24T11:11:51.026Z,1024.46
2017-06-24T11:12:51.669Z,1024.50
2017-06-24T11:13:52.514Z,1024.40
2017-06-24T11:14:53.160Z,1024.40
2017-06-24T11:15:53.802Z,1024.36
2017-06-24T11:16:54.447Z,1024.36
2017-06-24T11:17:55.091Z,1024.39
2017-06-24T11:18:55.733Z,1024.38
2017-06-24T11:19:56.383Z,1024.41
2017-06-24T11:20:57.025Z,1024.41
2017-06-24T11:21:57.869Z,1024.41
2017-06-24T11:22:58.512Z,1024.48
2017-06-24T11:23:59.155Z,1024.39
2017-06-24T11:24:59.801Z,1024.38
2017-06-24T11:26:00.444Z,1024.43
2017-06-24T11:27:01.087Z,1024.34
2017-06-24T11:28:01.732Z,1024.29
2017-06-24T11:29:02.376Z,1024.37
2017-06-24T11:30:03.218Z,1024.38
2017-06-24T11:31:03.861Z,1024.36
2017-06-24T11:32:04.505Z,1024.33
2017-06-24T11:33:05.149Z,1024.26
2017-06-24T11:34:05.794Z,1024.26
2017-06-24T11:35:06.439Z,1024.18
2017-06-24T11:36:07.079Z,1024.03
2017-06-24T11:37:07.723Z,1024.09
2017-06-24T11:38:08.369Z,1024.06
2017-06-24T11:39:09.262Z,1024.12
2017-06-24T11:40:09.907Z,1024.15
2017-06-24T11:41:10.553Z,1024.18
2017-06-24T11:42:11.197Z,1024.25
2017-06-24T11:43:11.841Z,1024.29
2017-06-24T11:44:12.483Z,1024.34
2017-06-24T11:45:13.127Z,1024.46
2017-06-24T11:46:13.770Z,1024.47
2017-06-24T11:47:14.566Z,1024.42
2017-06-24T11:48:15.209Z,1024.39
2017-06-24T11:49:15.856Z,1024.44
2017-06-24T11:50:16.494Z,1024.37
2017-06-24T11:51:17.141Z,1024.47
2017-06-24T11:52:17.783Z,1024.43
2017-06-24T11:53:18.426Z,1024.38
2017-06-24T11:54:19.071Z,1024.36
2017-06-24T11:55:19.965Z,1024.48
2017-06-24T11:56:20.611Z,1024.45
2017-06-24T11:57:21.255Z,1024.50
2017-06-24T11:58:21.899Z,1024.52
2017-06-24T11:59:22.543Z,1024.50
2017-06-24T12:00:23.185Z,1024.42
2017-06-24T12:01:23.832Z,1024.46
2017-06-24T12:02:24.475Z,1024.48
2017-06-24T12:03:25.270Z,1024.53
2017-06-24T12:04:25.913Z,1024.53
2017-06-24T12:05:26.557Z,1024.53
2017-06-24T12:06:27.202Z,1024.59
2017-06-24T12:07:27.797Z,1024.58
2017-06-24T12:08:28.442Z,1024.54
2017-06-24T12:09:29.083Z,1024.42
2017-06-24T12:10:29.727Z,1024.47
2017-06-24T12:11:30.373Z,1024.39
2017-06-24T12:12:31.214Z,1024.49
2017-06-24T12:13:31.862Z,1024.42